sensor_id;sensor_type;location;lat;lon;timestamp;P1;durP1;ratioP1;P2;durP2;ratioP2
5827;SDS011;42583;50.240;8.444;2023-06-14T00:01:07;8.52;;;2.88;;
5827;SDS011;42583;50.240;8.444;2023-06-14T00:16:09;8.35;;;3.13;;
5827;SDS011;42583;50.240;8.444;2023-06-14T00:31:10;7.18;;;3.13;;
5827;SDS011;42583;50.240;8.444;2023-06-14T00:46:10;5.18;;;2.88;;
5827;SDS011;42583;50.240;8.444;2023-06-14T01:01:11;6.63;;;3.00;;
5827;SDS011;42583;50.240;8.444;2023-06-14T01:16:11;7.63;;;2.80;;
5827;SDS011;42583;50.240;8.444;2023-06-14T01:31:12;5.07;;;3.13;;
5827;SDS011;42583;50.240;8.444;2023-06-14T01:46:15;7.33;;;3.10;;
5827;SDS011;42583;50.240;8.444;2023-06-14T02:01:16;10.40;;;3.25;;
5827;SDS011;42583;50.240;8.444;2023-06-14T02:16:16;7.00;;;2.97;;
5827;SDS011;42583;50.240;8.444;2023-06-14T02:31:17;5.32;;;2.90;;
5827;SDS011;42583;50.240;8.444;2023-06-14T02:46:18;6.15;;;2.95;;
5827;SDS011;42583;50.240;8.444;2023-06-14T03:01:18;8.50;;;3.28;;
5827;SDS011;42583;50.240;8.444;2023-06-14T03:16:20;7.32;;;3.25;;
5827;SDS011;42583;50.240;8.444;2023-06-14T03:31:22;5.32;;;2.90;;
5827;SDS011;42583;50.240;8.444;2023-06-14T03:46:23;5.88;;;3.30;;
5827;SDS011;42583;50.240;8.444;2023-06-14T04:01:24;7.75;;;3.50;;
5827;SDS011;42583;50.240;8.444;2023-06-14T04:16:27;7.07;;;3.20;;
5827;SDS011;42583;50.240;8.444;2023-06-14T04:31:31;6.65;;;3.42;;
5827;SDS011;42583;50.240;8.444;2023-06-14T04:46:37;12.27;;;3.30;;
5827;SDS011;42583;50.240;8.444;2023-06-14T05:01:45;7.10;;;3.30;;
5827;SDS011;42583;50.240;8.444;2023-06-14T05:16:48;7.57;;;3.20;;
5827;SDS011;42583;50.240;8.444;2023-06-14T05:31:50;7.63;;;3.38;;
5827;SDS011;42583;50.240;8.444;2023-06-14T05:46:51;6.78;;;3.22;;
5827;SDS011;42583;50.240;8.444;2023-06-14T06:01:51;5.15;;;2.80;;
5827;SDS011;42583;50.240;8.444;2023-06-14T06:16:52;7.82;;;3.00;;
5827;SDS011;42583;50.240;8.444;2023-06-14T06:31:53;7.47;;;2.80;;
5827;SDS011;42583;50.240;8.444;2023-06-14T06:46:53;7.43;;;2.58;;
5827;SDS011;42583;50.240;8.444;2023-06-14T07:01:54;5.50;;;2.50;;
5827;SDS011;42583;50.240;8.444;2023-06-14T07:16:55;8.02;;;2.47;;
5827;SDS011;42583;50.240;8.444;2023-06-14T07:31:55;3.85;;;2.30;;
5827;SDS011;42583;50.240;8.444;2023-06-14T07:46:56;4.88;;;2.25;;
5827;SDS011;42583;50.240;8.444;2023-06-14T08:01:59;5.20;;;1.90;;
5827;SDS011;42583;50.240;8.444;2023-06-14T08:16:59;5.35;;;1.77;;
5827;SDS011;42583;50.240;8.444;2023-06-14T08:32:00;3.45;;;1.80;;
5827;SDS011;42583;50.240;8.444;2023-06-14T08:47:01;2.40;;;1.45;;
5827;SDS011;42583;50.240;8.444;2023-06-14T09:02:03;3.20;;;1.80;;
5827;SDS011;42583;50.240;8.444;2023-06-14T09:17:05;6.38;;;1.92;;
5827;SDS011;42583;50.240;8.444;2023-06-14T09:32:06;2.83;;;1.60;;
5827;SDS011;42583;50.240;8.444;2023-06-14T09:47:07;3.60;;;1.77;;
5827;SDS011;42583;50.240;8.444;2023-06-14T10:02:14;3.03;;;1.40;;
5827;SDS011;42583;50.240;8.444;2023-06-14T10:33:06;4.03;;;1.83;;
5827;SDS011;42583;50.240;8.444;2023-06-14T10:48:07;2.70;;;1.60;;
5827;SDS011;42583;50.240;8.444;2023-06-14T11:03:36;6.15;;;1.90;;
5827;SDS011;42583;50.240;8.444;2023-06-14T11:18:50;5.30;;;1.80;;
5827;SDS011;42583;50.240;8.444;2023-06-14T11:33:51;3.13;;;1.70;;
5827;SDS011;42583;50.240;8.444;2023-06-14T11:48:54;5.38;;;1.80;;
5827;SDS011;42583;50.240;8.444;2023-06-14T12:03:55;2.50;;;1.60;;
5827;SDS011;42583;50.240;8.444;2023-06-14T12:18:55;5.45;;;1.50;;
5827;SDS011;42583;50.240;8.444;2023-06-14T12:34:00;3.53;;;1.55;;
5827;SDS011;42583;50.240;8.444;2023-06-14T12:49:01;6.18;;;1.75;;
5827;SDS011;42583;50.240;8.444;2023-06-14T13:04:01;4.25;;;1.67;;
5827;SDS011;42583;50.240;8.444;2023-06-14T13:19:02;3.33;;;1.98;;
5827;SDS011;42583;50.240;8.444;2023-06-14T13:34:02;6.80;;;1.90;;
5827;SDS011;42583;50.240;8.444;2023-06-14T13:49:04;3.70;;;1.70;;
5827;SDS011;42583;50.240;8.444;2023-06-14T14:04:05;5.95;;;2.00;;
5827;SDS011;42583;50.240;8.444;2023-06-14T14:19:05;3.17;;;1.73;;
5827;SDS011;42583;50.240;8.444;2023-06-14T14:34:06;3.55;;;1.88;;
5827;SDS011;42583;50.240;8.444;2023-06-14T14:49:07;3.25;;;1.80;;
5827;SDS011;42583;50.240;8.444;2023-06-14T15:04:07;5.47;;;1.80;;
5827;SDS011;42583;50.240;8.444;2023-06-14T15:19:08;2.80;;;1.80;;
5827;SDS011;42583;50.240;8.444;2023-06-14T15:34:08;2.75;;;1.90;;
5827;SDS011;42583;50.240;8.444;2023-06-14T15:49:10;9.18;;;2.10;;
5827;SDS011;42583;50.240;8.444;2023-06-14T16:04:10;4.05;;;2.03;;
5827;SDS011;42583;50.240;8.444;2023-06-14T16:19:11;3.17;;;1.95;;
5827;SDS011;42583;50.240;8.444;2023-06-14T16:34:11;5.30;;;1.90;;
5827;SDS011;42583;50.240;8.444;2023-06-14T16:49:14;3.87;;;1.80;;
5827;SDS011;42583;50.240;8.444;2023-06-14T17:04:15;6.57;;;2.00;;
5827;SDS011;42583;50.240;8.444;2023-06-14T17:19:15;2.78;;;1.90;;
5827;SDS011;42583;50.240;8.444;2023-06-14T17:34:16;3.42;;;2.00;;
5827;SDS011;42583;50.240;8.444;2023-06-14T17:49:17;3.50;;;1.83;;
5827;SDS011;42583;50.240;8.444;2023-06-14T18:04:23;5.32;;;1.85;;
5827;SDS011;42583;50.240;8.444;2023-06-14T18:19:23;3.13;;;2.10;;
5827;SDS011;42583;50.240;8.444;2023-06-14T18:34:28;3.88;;;2.10;;
5827;SDS011;42583;50.240;8.444;2023-06-14T18:49:28;3.78;;;1.90;;
5827;SDS011;42583;50.240;8.444;2023-06-14T19:04:29;3.05;;;1.90;;
5827;SDS011;42583;50.240;8.444;2023-06-14T19:19:29;6.55;;;2.08;;
5827;SDS011;42583;50.240;8.444;2023-06-14T19:34:30;3.50;;;1.85;;
5827;SDS011;42583;50.240;8.444;2023-06-14T19:49:31;3.10;;;1.92;;
5827;SDS011;42583;50.240;8.444;2023-06-14T20:04:31;3.70;;;2.17;;
5827;SDS011;42583;50.240;8.444;2023-06-14T20:19:32;2.78;;;1.90;;
5827;SDS011;42583;50.240;8.444;2023-06-14T20:34:33;4.40;;;2.00;;
5827;SDS011;42583;50.240;8.444;2023-06-14T20:49:33;5.50;;;2.10;;
5827;SDS011;42583;50.240;8.444;2023-06-14T21:04:35;3.22;;;1.90;;
5827;SDS011;42583;50.240;8.444;2023-06-14T21:19:37;3.28;;;1.92;;
5827;SDS011;42583;50.240;8.444;2023-06-14T21:49:42;2.88;;;1.75;;
5827;SDS011;42583;50.240;8.444;2023-06-14T22:04:46;4.37;;;1.90;;
5827;SDS011;42583;50.240;8.444;2023-06-14T22:19:47;4.15;;;2.10;;
5827;SDS011;42583;50.240;8.444;2023-06-14T22:34:50;2.95;;;2.00;;
5827;SDS011;42583;50.240;8.444;2023-06-14T22:49:51;3.22;;;2.17;;
5827;SDS011;42583;50.240;8.444;2023-06-14T23:04:54;5.90;;;2.23;;
5827;SDS011;42583;50.240;8.444;2023-06-14T23:19:55;3.17;;;2.13;;
5827;SDS011;42583;50.240;8.444;2023-06-14T23:35:07;6.15;;;2.38;;
5827;SDS011;42583;50.240;8.444;2023-06-14T23:50:08;2.92;;;1.98;;
